sensor_id;sensor_type;location;lat;lon;timestamp;temperature;humidity
20973;DHT22;10645;52.370;13.314;2023-05-10T00:00:42;9.90;99.90
20973;DHT22;10645;52.370;13.314;2023-05-10T00:03:08;9.90;99.90
20973;DHT22;10645;52.370;13.314;2023-05-10T00:05:34;9.90;99.90
20973;DHT22;10645;52.370;13.314;2023-05-10T00:08:00;9.90;99.90
20973;DHT22;10645;52.370;13.314;2023-05-10T00:10:26;9.90;99.90
20973;DHT22;10645;52.370;13.314;2023-05-10T00:12:52;9.90;99.90
20973;DHT22;10645;52.370;13.314;2023-05-10T00:15:18;9.90;99.90
20973;DHT22;10645;52.370;13.314;2023-05-10T00:17:44;9.90;99.90
20973;DHT22;10645;52.370;13.314;2023-05-10T00:20:11;9.90;99.90
20973;DHT22;10645;52.370;13.314;2023-05-10T00:22:37;9.80;99.90
20973;DHT22;10645;52.370;13.314;2023-05-10T00:25:03;9.80;99.90
20973;DHT22;10645;52.370;13.314;2023-05-10T00:27:29;9.80;99.90
20973;DHT22;10645;52.370;13.314;2023-05-10T00:29:55;9.80;99.90
20973;DHT22;10645;52.370;13.314;2023-05-10T00:32:21;9.80;99.90
20973;DHT22;10645;52.370;13.314;2023-05-10T00:34:47;9.80;99.90
20973;DHT22;10645;52.370;13.314;2023-05-10T00:37:13;9.90;99.90
20973;DHT22;10645;52.370;13.314;2023-05-10T00:39:39;9.90;99.90
20973;DHT22;10645;52.370;13.314;2023-05-10T00:42:05;9.90;99.90
20973;DHT22;10645;52.370;13.314;2023-05-10T00:44:32;9.90;99.90
20973;DHT22;10645;52.370;13.314;2023-05-10T00:46:59;9.90;99.90
20973;DHT22;10645;52.370;13.314;2023-05-10T00:49:25;9.90;99.90
20973;DHT22;10645;52.370;13.314;2023-05-10T00:51:51;9.80;99.90
20973;DHT22;10645;52.370;13.314;2023-05-10T00:54:17;9.80;99.90
20973;DHT22;10645;52.370;13.314;2023-05-10T00:56:44;9.80;99.90
20973;DHT22;10645;52.370;13.314;2023-05-10T00:59:18;9.70;99.90
20973;DHT22;10645;52.370;13.314;2023-05-10T01:01:45;9.60;99.90
20973;DHT22;10645;52.370;13.314;2023-05-10T01:04:12;9.60;99.90
20973;DHT22;10645;52.370;13.314;2023-05-10T01:06:40;9.50;99.90
20973;DHT22;10645;52.370;13.314;2023-05-10T01:09:06;9.40;99.90
20973;DHT22;10645;52.370;13.314;2023-05-10T01:11:36;9.40;99.90
20973;DHT22;10645;52.370;13.314;2023-05-10T01:14:03;9.40;99.90
20973;DHT22;10645;52.370;13.314;2023-05-10T01:16:32;9.40;99.90
20973;DHT22;10645;52.370;13.314;2023-05-10T01:19:00;9.30;99.90
20973;DHT22;10645;52.370;13.314;2023-05-10T01:21:41;9.30;99.90
20973;DHT22;10645;52.370;13.314;2023-05-10T01:24:19;9.30;99.90
20973;DHT22;10645;52.370;13.314;2023-05-10T01:27:07;9.30;99.90
20973;DHT22;10645;52.370;13.314;2023-05-10T01:35:02;9.30;99.90
20973;DHT22;10645;52.370;13.314;2023-05-10T01:37:37;9.30;99.90
20973;DHT22;10645;52.370;13.314;2023-05-10T01:40:17;9.30;99.90
20973;DHT22;10645;52.370;13.314;2023-05-10T01:42:52;9.20;99.90
20973;DHT22;10645;52.370;13.314;2023-05-10T01:45:47;9.20;99.90
20973;DHT22;10645;52.370;13.314;2023-05-10T01:48:18;9.20;99.90
20973;DHT22;10645;52.370;13.314;2023-05-10T01:50:46;9.20;99.90
20973;DHT22;10645;52.370;13.314;2023-05-10T01:53:18;9.10;99.90
20973;DHT22;10645;52.370;13.314;2023-05-10T01:55:50;9.10;99.90
20973;DHT22;10645;52.370;13.314;2023-05-10T01:58:27;9.10;99.90
20973;DHT22;10645;52.370;13.314;2023-05-10T02:00:53;9.00;99.90
20973;DHT22;10645;52.370;13.314;2023-05-10T02:03:24;9.00;99.90
20973;DHT22;10645;52.370;13.314;2023-05-10T02:05:52;8.90;99.90
20973;DHT22;10645;52.370;13.314;2023-05-10T02:08:22;8.90;99.90
20973;DHT22;10645;52.370;13.314;2023-05-10T02:10:50;8.90;99.90
20973;DHT22;10645;52.370;13.314;2023-05-10T02:13:18;8.80;99.90
20973;DHT22;10645;52.370;13.314;2023-05-10T02:15:48;8.80;99.90
20973;DHT22;10645;52.370;13.314;2023-05-10T02:18:15;8.70;99.90
20973;DHT22;10645;52.370;13.314;2023-05-10T02:20:43;8.70;99.90
20973;DHT22;10645;52.370;13.314;2023-05-10T02:23:09;8.70;99.90
20973;DHT22;10645;52.370;13.314;2023-05-10T02:25:37;8.70;99.90
20973;DHT22;10645;52.370;13.314;2023-05-10T02:28:06;8.60;99.90
20973;DHT22;10645;52.370;13.314;2023-05-10T02:30:35;8.60;99.90
20973;DHT22;10645;52.370;13.314;2023-05-10T02:33:03;8.50;99.90
20973;DHT22;10645;52.370;13.314;2023-05-10T02:35:30;8.50;99.90
20973;DHT22;10645;52.370;13.314;2023-05-10T02:37:59;8.50;99.90
20973;DHT22;10645;52.370;13.314;2023-05-10T02:40:27;8.50;99.90
20973;DHT22;10645;52.370;13.314;2023-05-10T02:42:55;8.40;99.90
20973;DHT22;10645;52.370;13.314;2023-05-10T02:45:25;8.50;99.90
20973;DHT22;10645;52.370;13.314;2023-05-10T02:47:54;8.40;99.90
20973;DHT22;10645;52.370;13.314;2023-05-10T02:50:21;8.40;99.90
20973;DHT22;10645;52.370;13.314;2023-05-10T02:52:50;8.30;99.90
20973;DHT22;10645;52.370;13.314;2023-05-10T02:55:21;8.40;99.90
20973;DHT22;10645;52.370;13.314;2023-05-10T02:58:01;8.30;99.90
20973;DHT22;10645;52.370;13.314;2023-05-10T03:00:27;8.30;99.90
20973;DHT22;10645;52.370;13.314;2023-05-10T03:02:54;8.30;99.90
20973;DHT22;10645;52.370;13.314;2023-05-10T03:05:20;8.30;99.90
20973;DHT22;10645;52.370;13.314;2023-05-10T03:07:47;8.30;99.90
20973;DHT22;10645;52.370;13.314;2023-05-10T03:10:14;8.20;99.90
20973;DHT22;10645;52.370;13.314;2023-05-10T03:13:16;8.20;99.90
20973;DHT22;10645;52.370;13.314;2023-05-10T03:16:52;8.20;99.90
20973;DHT22;10645;52.370;13.314;2023-05-10T03:19:06;8.20;99.90
20973;DHT22;10645;52.370;13.314;2023-05-10T03:21:37;8.10;99.90
20973;DHT22;10645;52.370;13.314;2023-05-10T03:24:08;8.10;99.90
20973;DHT22;10645;52.370;13.314;2023-05-10T03:26:37;8.10;99.90
20973;DHT22;10645;52.370;13.314;2023-05-10T03:29:10;8.10;99.90
20973;DHT22;10645;52.370;13.314;2023-05-10T03:31:38;8.10;99.90
20973;DHT22;10645;52.370;13.314;2023-05-10T03:34:04;8.10;99.90
20973;DHT22;10645;52.370;13.314;2023-05-10T03:36:32;8.10;99.90
20973;DHT22;10645;52.370;13.314;2023-05-10T03:38:58;8.20;99.90
20973;DHT22;10645;52.370;13.314;2023-05-10T03:41:24;8.20;99.90
20973;DHT22;10645;52.370;13.314;2023-05-10T03:43:51;8.20;99.90
20973;DHT22;10645;52.370;13.314;2023-05-10T03:46:17;8.20;99.90
20973;DHT22;10645;52.370;13.314;2023-05-10T03:48:44;8.20;99.90
20973;DHT22;10645;52.370;13.314;2023-05-10T03:51:10;8.30;99.90
20973;DHT22;10645;52.370;13.314;2023-05-10T03:53:36;8.40;99.90
20973;DHT22;10645;52.370;13.314;2023-05-10T03:56:02;8.40;99.90
20973;DHT22;10645;52.370;13.314;2023-05-10T03:58:28;8.40;99.90
20973;DHT22;10645;52.370;13.314;2023-05-10T04:00:54;8.40;99.90
20973;DHT22;10645;52.370;13.314;2023-05-10T04:03:21;8.50;99.90
20973;DHT22;10645;52.370;13.314;2023-05-10T04:05:47;8.50;99.90
20973;DHT22;10645;52.370;13.314;2023-05-10T04:08:13;8.50;99.90
20973;DHT22;10645;52.370;13.314;2023-05-10T04:10:41;8.50;99.90
20973;DHT22;10645;52.370;13.314;2023-05-10T04:13:07;8.50;99.90
20973;DHT22;10645;52.370;13.314;2023-05-10T04:15:33;8.60;99.90
20973;DHT22;10645;52.370;13.314;2023-05-10T04:17:59;8.60;99.90
20973;DHT22;10645;52.370;13.314;2023-05-10T04:20:26;8.60;99.90
20973;DHT22;10645;52.370;13.314;2023-05-10T04:22:52;8.70;99.90
20973;DHT22;10645;52.370;13.314;2023-05-10T04:25:18;8.70;99.90
20973;DHT22;10645;52.370;13.314;2023-05-10T04:27:44;8.70;99.90
20973;DHT22;10645;52.370;13.314;2023-05-10T04:30:10;8.80;99.90
20973;DHT22;10645;52.370;13.314;2023-05-10T04:32:36;8.80;99.90
20973;DHT22;10645;52.370;13.314;2023-05-10T04:35:03;8.90;99.90
20973;DHT22;10645;52.370;13.314;2023-05-10T04:37:30;8.90;99.90
20973;DHT22;10645;52.370;13.314;2023-05-10T04:39:56;9.00;99.90
20973;DHT22;10645;52.370;13.314;2023-05-10T04:42:22;9.00;99.90
20973;DHT22;10645;52.370;13.314;2023-05-10T04:44:48;9.10;99.90
20973;DHT22;10645;52.370;13.314;2023-05-10T04:47:14;9.10;99.90
20973;DHT22;10645;52.370;13.314;2023-05-10T04:49:42;9.20;99.90
20973;DHT22;10645;52.370;13.314;2023-05-10T04:52:08;9.30;99.90
20973;DHT22;10645;52.370;13.314;2023-05-10T04:54:34;9.40;99.90
20973;DHT22;10645;52.370;13.314;2023-05-10T04:57:00;9.40;99.90
20973;DHT22;10645;52.370;13.314;2023-05-10T04:59:26;9.50;99.90
20973;DHT22;10645;52.370;13.314;2023-05-10T05:01:52;9.60;99.90
20973;DHT22;10645;52.370;13.314;2023-05-10T05:04:18;9.70;99.90
20973;DHT22;10645;52.370;13.314;2023-05-10T05:06:44;9.80;99.90
20973;DHT22;10645;52.370;13.314;2023-05-10T05:09:10;9.90;99.90
20973;DHT22;10645;52.370;13.314;2023-05-10T05:11:36;9.90;99.90
20973;DHT22;10645;52.370;13.314;2023-05-10T05:14:02;10.10;99.90
20973;DHT22;10645;52.370;13.314;2023-05-10T05:16:30;10.20;99.90
20973;DHT22;10645;52.370;13.314;2023-05-10T05:18:56;10.30;99.90
20973;DHT22;10645;52.370;13.314;2023-05-10T05:21:22;10.40;99.90
20973;DHT22;10645;52.370;13.314;2023-05-10T05:23:49;10.60;99.90
20973;DHT22;10645;52.370;13.314;2023-05-10T05:26:16;10.60;99.90
20973;DHT22;10645;52.370;13.314;2023-05-10T05:28:42;10.80;99.90
20973;DHT22;10645;52.370;13.314;2023-05-10T05:31:08;10.90;99.90
20973;DHT22;10645;52.370;13.314;2023-05-10T05:33:34;11.10;99.90
20973;DHT22;10645;52.370;13.314;2023-05-10T05:36:01;11.20;99.90
20973;DHT22;10645;52.370;13.314;2023-05-10T05:38:28;11.30;99.90
20973;DHT22;10645;52.370;13.314;2023-05-10T05:40:54;11.40;99.90
20973;DHT22;10645;52.370;13.314;2023-05-10T05:43:20;11.60;99.90
20973;DHT22;10645;52.370;13.314;2023-05-10T05:45:46;11.70;99.90
20973;DHT22;10645;52.370;13.314;2023-05-10T05:48:12;11.80;99.90
20973;DHT22;10645;52.370;13.314;2023-05-10T05:50:38;11.90;99.90
20973;DHT22;10645;52.370;13.314;2023-05-10T05:53:04;12.00;99.90
20973;DHT22;10645;52.370;13.314;2023-05-10T05:55:30;12.10;99.90
20973;DHT22;10645;52.370;13.314;2023-05-10T05:57:58;12.30;99.90
20973;DHT22;10645;52.370;13.314;2023-05-10T06:00:24;12.40;99.90
20973;DHT22;10645;52.370;13.314;2023-05-10T06:02:50;12.50;99.90
20973;DHT22;10645;52.370;13.314;2023-05-10T06:05:16;12.60;99.90
20973;DHT22;10645;52.370;13.314;2023-05-10T06:07:42;12.70;99.90
20973;DHT22;10645;52.370;13.314;2023-05-10T06:10:09;12.80;99.90
20973;DHT22;10645;52.370;13.314;2023-05-10T06:12:35;12.90;99.90
20973;DHT22;10645;52.370;13.314;2023-05-10T06:15:02;13.00;99.90
20973;DHT22;10645;52.370;13.314;2023-05-10T06:17:28;13.10;99.90
20973;DHT22;10645;52.370;13.314;2023-05-10T06:19:55;13.20;99.90
20973;DHT22;10645;52.370;13.314;2023-05-10T06:22:21;13.40;99.90
20973;DHT22;10645;52.370;13.314;2023-05-10T06:24:49;13.50;99.90
20973;DHT22;10645;52.370;13.314;2023-05-10T06:27:15;13.60;99.90
20973;DHT22;10645;52.370;13.314;2023-05-10T06:29:41;13.50;99.90
20973;DHT22;10645;52.370;13.314;2023-05-10T06:32:07;13.60;99.90
20973;DHT22;10645;52.370;13.314;2023-05-10T06:34:33;13.80;99.90
20973;DHT22;10645;52.370;13.314;2023-05-10T06:37:00;13.80;99.90
20973;DHT22;10645;52.370;13.314;2023-05-10T06:39:26;13.90;99.90
20973;DHT22;10645;52.370;13.314;2023-05-10T06:41:52;14.00;99.90
20973;DHT22;10645;52.370;13.314;2023-05-10T06:44:19;14.20;99.90
20973;DHT22;10645;52.370;13.314;2023-05-10T06:46:45;14.20;99.90
20973;DHT22;10645;52.370;13.314;2023-05-10T06:49:11;14.30;99.90
20973;DHT22;10645;52.370;13.314;2023-05-10T06:51:37;14.40;99.90
20973;DHT22;10645;52.370;13.314;2023-05-10T06:54:03;14.50;99.90
20973;DHT22;10645;52.370;13.314;2023-05-10T06:56:29;14.70;99.90
20973;DHT22;10645;52.370;13.314;2023-05-10T06:58:55;14.60;99.90
20973;DHT22;10645;52.370;13.314;2023-05-10T07:01:21;14.80;99.90
20973;DHT22;10645;52.370;13.314;2023-05-10T07:03:47;14.90;99.90
20973;DHT22;10645;52.370;13.314;2023-05-10T07:06:13;15.00;99.90
20973;DHT22;10645;52.370;13.314;2023-05-10T07:08:39;15.10;99.90
20973;DHT22;10645;52.370;13.314;2023-05-10T07:11:06;15.20;99.90
20973;DHT22;10645;52.370;13.314;2023-05-10T07:13:36;15.10;99.90
20973;DHT22;10645;52.370;13.314;2023-05-10T07:16:02;15.20;99.90
20973;DHT22;10645;52.370;13.314;2023-05-10T07:18:28;15.20;99.90
20973;DHT22;10645;52.370;13.314;2023-05-10T07:20:54;15.30;99.90
20973;DHT22;10645;52.370;13.314;2023-05-10T07:23:20;15.40;99.90
20973;DHT22;10645;52.370;13.314;2023-05-10T07:25:50;15.40;99.90
20973;DHT22;10645;52.370;13.314;2023-05-10T07:28:19;15.50;99.90
20973;DHT22;10645;52.370;13.314;2023-05-10T07:30:46;15.60;99.90
20973;DHT22;10645;52.370;13.314;2023-05-10T07:33:13;15.90;99.90
20973;DHT22;10645;52.370;13.314;2023-05-10T07:35:39;16.10;99.90
20973;DHT22;10645;52.370;13.314;2023-05-10T07:38:05;16.10;99.90
20973;DHT22;10645;52.370;13.314;2023-05-10T07:40:31;16.20;99.90
20973;DHT22;10645;52.370;13.314;2023-05-10T07:42:58;16.20;99.90
20973;DHT22;10645;52.370;13.314;2023-05-10T07:45:24;16.30;99.90
20973;DHT22;10645;52.370;13.314;2023-05-10T07:47:50;16.30;99.90
20973;DHT22;10645;52.370;13.314;2023-05-10T07:50:16;16.40;99.90
20973;DHT22;10645;52.370;13.314;2023-05-10T07:52:42;16.50;99.90
20973;DHT22;10645;52.370;13.314;2023-05-10T07:55:08;16.60;99.90
20973;DHT22;10645;52.370;13.314;2023-05-10T07:57:35;16.70;99.90
20973;DHT22;10645;52.370;13.314;2023-05-10T08:00:01;17.00;99.90
20973;DHT22;10645;52.370;13.314;2023-05-10T08:02:27;17.10;99.90
20973;DHT22;10645;52.370;13.314;2023-05-10T08:04:53;17.20;99.90
20973;DHT22;10645;52.370;13.314;2023-05-10T08:07:19;17.20;99.90
20973;DHT22;10645;52.370;13.314;2023-05-10T08:09:45;17.30;99.90
20973;DHT22;10645;52.370;13.314;2023-05-10T08:12:12;17.40;99.80
20973;DHT22;10645;52.370;13.314;2023-05-10T08:14:38;17.50;99.40
20973;DHT22;10645;52.370;13.314;2023-05-10T08:17:04;17.50;99.70
20973;DHT22;10645;52.370;13.314;2023-05-10T08:19:30;17.70;99.60
20973;DHT22;10645;52.370;13.314;2023-05-10T08:21:56;17.80;99.70
20973;DHT22;10645;52.370;13.314;2023-05-10T08:24:22;17.90;99.00
20973;DHT22;10645;52.370;13.314;2023-05-10T08:26:49;17.90;99.40
20973;DHT22;10645;52.370;13.314;2023-05-10T08:29:15;18.20;99.90
20973;DHT22;10645;52.370;13.314;2023-05-10T08:31:41;18.20;99.20
20973;DHT22;10645;52.370;13.314;2023-05-10T08:34:07;18.30;99.10
20973;DHT22;10645;52.370;13.314;2023-05-10T08:36:33;18.40;99.20
20973;DHT22;10645;52.370;13.314;2023-05-10T08:38:59;18.50;98.80
20973;DHT22;10645;52.370;13.314;2023-05-10T08:41:25;18.60;99.30
20973;DHT22;10645;52.370;13.314;2023-05-10T08:43:52;18.70;98.80
20973;DHT22;10645;52.370;13.314;2023-05-10T08:46:20;18.80;97.40
20973;DHT22;10645;52.370;13.314;2023-05-10T08:48:48;18.70;97.90
20973;DHT22;10645;52.370;13.314;2023-05-10T08:51:18;18.90;98.50
20973;DHT22;10645;52.370;13.314;2023-05-10T08:53:46;18.80;97.80
20973;DHT22;10645;52.370;13.314;2023-05-10T08:56:12;18.90;97.80
20973;DHT22;10645;52.370;13.314;2023-05-10T08:58:38;19.00;97.60
20973;DHT22;10645;52.370;13.314;2023-05-10T09:01:05;19.20;98.40
20973;DHT22;10645;52.370;13.314;2023-05-10T09:03:31;19.50;97.90
20973;DHT22;10645;52.370;13.314;2023-05-10T09:05:58;19.50;97.80
20973;DHT22;10645;52.370;13.314;2023-05-10T09:08:25;19.60;96.80
20973;DHT22;10645;52.370;13.314;2023-05-10T09:10:51;19.70;96.50
20973;DHT22;10645;52.370;13.314;2023-05-10T09:13:18;19.60;95.90
20973;DHT22;10645;52.370;13.314;2023-05-10T09:15:45;19.60;96.30
20973;DHT22;10645;52.370;13.314;2023-05-10T09:18:12;19.90;95.90
20973;DHT22;10645;52.370;13.314;2023-05-10T09:20:38;20.10;97.10
20973;DHT22;10645;52.370;13.314;2023-05-10T09:23:04;20.50;95.80
20973;DHT22;10645;52.370;13.314;2023-05-10T09:25:31;20.30;95.10
20973;DHT22;10645;52.370;13.314;2023-05-10T09:27:59;20.30;95.40
20973;DHT22;10645;52.370;13.314;2023-05-10T09:30:29;20.60;96.00
20973;DHT22;10645;52.370;13.314;2023-05-10T09:32:58;20.40;94.40
20973;DHT22;10645;52.370;13.314;2023-05-10T09:35:25;20.70;95.70
20973;DHT22;10645;52.370;13.314;2023-05-10T09:37:54;20.80;95.60
20973;DHT22;10645;52.370;13.314;2023-05-10T09:40:22;20.80;94.30
20973;DHT22;10645;52.370;13.314;2023-05-10T09:42:52;20.80;95.70
20973;DHT22;10645;52.370;13.314;2023-05-10T09:45:20;20.90;95.40
20973;DHT22;10645;52.370;13.314;2023-05-10T09:47:47;21.20;96.00
20973;DHT22;10645;52.370;13.314;2023-05-10T09:50:13;21.20;93.70
20973;DHT22;10645;52.370;13.314;2023-05-10T09:52:51;21.30;95.00
20973;DHT22;10645;52.370;13.314;2023-05-10T09:55:22;21.50;95.00
20973;DHT22;10645;52.370;13.314;2023-05-10T09:57:50;21.40;93.70
20973;DHT22;10645;52.370;13.314;2023-05-10T10:00:23;21.70;94.10
20973;DHT22;10645;52.370;13.314;2023-05-10T10:02:58;22.10;94.50
20973;DHT22;10645;52.370;13.314;2023-05-10T10:05:34;22.10;92.30
20973;DHT22;10645;52.370;13.314;2023-05-10T10:08:03;21.90;92.20
20973;DHT22;10645;52.370;13.314;2023-05-10T10:10:30;22.10;93.80
20973;DHT22;10645;52.370;13.314;2023-05-10T10:12:56;22.40;93.40
20973;DHT22;10645;52.370;13.314;2023-05-10T10:15:23;22.40;92.30
20973;DHT22;10645;52.370;13.314;2023-05-10T10:17:50;22.20;91.70
20973;DHT22;10645;52.370;13.314;2023-05-10T10:20:18;22.40;92.40
20973;DHT22;10645;52.370;13.314;2023-05-10T10:22:45;22.50;93.00
20973;DHT22;10645;52.370;13.314;2023-05-10T10:25:12;22.60;92.40
20973;DHT22;10645;52.370;13.314;2023-05-10T10:30:40;22.80;91.20
20973;DHT22;10645;52.370;13.314;2023-05-10T10:36:00;23.10;92.60
20973;DHT22;10645;52.370;13.314;2023-05-10T10:38:38;23.00;91.30
20973;DHT22;10645;52.370;13.314;2023-05-10T10:41:33;23.10;92.50
20973;DHT22;10645;52.370;13.314;2023-05-10T10:44:22;23.20;90.00
20973;DHT22;10645;52.370;13.314;2023-05-10T10:49:49;23.30;91.60
20973;DHT22;10645;52.370;13.314;2023-05-10T10:52:26;23.20;90.50
20973;DHT22;10645;52.370;13.314;2023-05-10T10:57:31;23.30;89.80
20973;DHT22;10645;52.370;13.314;2023-05-10T11:02:50;23.50;91.70
20973;DHT22;10645;52.370;13.314;2023-05-10T11:08:29;23.30;88.50
20973;DHT22;10645;52.370;13.314;2023-05-10T11:13:41;23.50;89.60
20973;DHT22;10645;52.370;13.314;2023-05-10T11:16:13;23.50;88.40
20973;DHT22;10645;52.370;13.314;2023-05-10T11:18:39;23.50;90.60
20973;DHT22;10645;52.370;13.314;2023-05-10T11:21:08;23.60;87.00
20973;DHT22;10645;52.370;13.314;2023-05-10T11:26:12;24.30;89.50
20973;DHT22;10645;52.370;13.314;2023-05-10T11:28:46;24.40;88.30
20973;DHT22;10645;52.370;13.314;2023-05-10T11:31:16;24.40;84.60
20973;DHT22;10645;52.370;13.314;2023-05-10T11:33:47;24.20;82.30
20973;DHT22;10645;52.370;13.314;2023-05-10T11:36:18;24.00;84.20
20973;DHT22;10645;52.370;13.314;2023-05-10T11:38:45;24.20;88.40
20973;DHT22;10645;52.370;13.314;2023-05-10T11:41:12;24.30;87.40
20973;DHT22;10645;52.370;13.314;2023-05-10T11:43:39;24.60;90.50
20973;DHT22;10645;52.370;13.314;2023-05-10T11:46:10;24.80;88.20
20973;DHT22;10645;52.370;13.314;2023-05-10T11:48:38;24.70;86.70
20973;DHT22;10645;52.370;13.314;2023-05-10T11:51:06;24.90;84.80
20973;DHT22;10645;52.370;13.314;2023-05-10T11:53:33;24.60;84.40
20973;DHT22;10645;52.370;13.314;2023-05-10T11:56:06;24.60;81.30
20973;DHT22;10645;52.370;13.314;2023-05-10T11:58:33;24.80;84.80
20973;DHT22;10645;52.370;13.314;2023-05-10T12:01:00;25.00;83.50
20973;DHT22;10645;52.370;13.314;2023-05-10T12:03:30;25.10;83.60
20973;DHT22;10645;52.370;13.314;2023-05-10T12:05:57;25.20;82.70
20973;DHT22;10645;52.370;13.314;2023-05-10T12:08:29;25.00;81.00
20973;DHT22;10645;52.370;13.314;2023-05-10T12:11:07;25.20;84.70
20973;DHT22;10645;52.370;13.314;2023-05-10T12:13:40;25.10;84.90
20973;DHT22;10645;52.370;13.314;2023-05-10T12:16:17;25.10;84.70
20973;DHT22;10645;52.370;13.314;2023-05-10T12:18:43;25.30;83.00
20973;DHT22;10645;52.370;13.314;2023-05-10T12:21:11;25.40;82.40
20973;DHT22;10645;52.370;13.314;2023-05-10T12:23:38;25.30;82.40
20973;DHT22;10645;52.370;13.314;2023-05-10T12:26:05;25.10;81.60
20973;DHT22;10645;52.370;13.314;2023-05-10T12:28:32;25.30;81.60
20973;DHT22;10645;52.370;13.314;2023-05-10T12:31:02;25.20;83.80
20973;DHT22;10645;52.370;13.314;2023-05-10T12:33:39;25.10;82.90
20973;DHT22;10645;52.370;13.314;2023-05-10T12:36:07;25.30;81.20
20973;DHT22;10645;52.370;13.314;2023-05-10T12:38:37;25.50;85.70
20973;DHT22;10645;52.370;13.314;2023-05-10T12:41:08;25.50;79.60
20973;DHT22;10645;52.370;13.314;2023-05-10T12:43:35;25.50;80.50
20973;DHT22;10645;52.370;13.314;2023-05-10T12:46:06;25.60;82.10
20973;DHT22;10645;52.370;13.314;2023-05-10T12:48:32;25.80;81.30
20973;DHT22;10645;52.370;13.314;2023-05-10T12:51:00;25.80;79.60
20973;DHT22;10645;52.370;13.314;2023-05-10T12:53:27;25.90;81.30
20973;DHT22;10645;52.370;13.314;2023-05-10T12:55:53;25.80;78.00
20973;DHT22;10645;52.370;13.314;2023-05-10T12:58:19;26.00;78.60
20973;DHT22;10645;52.370;13.314;2023-05-10T13:00:45;26.20;78.10
20973;DHT22;10645;52.370;13.314;2023-05-10T13:03:12;26.20;75.60
20973;DHT22;10645;52.370;13.314;2023-05-10T13:05:38;26.00;76.10
20973;DHT22;10645;52.370;13.314;2023-05-10T13:08:04;25.80;74.60
20973;DHT22;10645;52.370;13.314;2023-05-10T13:10:31;25.50;79.70
20973;DHT22;10645;52.370;13.314;2023-05-10T13:13:00;25.40;75.30
20973;DHT22;10645;52.370;13.314;2023-05-10T13:15:27;25.50;79.30
20973;DHT22;10645;52.370;13.314;2023-05-10T13:17:53;25.50;78.30
20973;DHT22;10645;52.370;13.314;2023-05-10T13:20:20;25.40;76.40
20973;DHT22;10645;52.370;13.314;2023-05-10T13:22:46;25.50;78.10
20973;DHT22;10645;52.370;13.314;2023-05-10T13:25:13;25.30;74.70
20973;DHT22;10645;52.370;13.314;2023-05-10T13:27:39;25.10;77.20
20973;DHT22;10645;52.370;13.314;2023-05-10T13:30:06;25.30;80.20
20973;DHT22;10645;52.370;13.314;2023-05-10T13:32:33;25.70;76.30
20973;DHT22;10645;52.370;13.314;2023-05-10T13:34:59;26.20;76.40
20973;DHT22;10645;52.370;13.314;2023-05-10T13:37:25;26.10;74.30
20973;DHT22;10645;52.370;13.314;2023-05-10T13:39:51;26.00;75.20
20973;DHT22;10645;52.370;13.314;2023-05-10T13:42:18;25.80;72.50
20973;DHT22;10645;52.370;13.314;2023-05-10T13:44:44;25.90;77.60
20973;DHT22;10645;52.370;13.314;2023-05-10T13:47:11;26.10;77.70
20973;DHT22;10645;52.370;13.314;2023-05-10T13:49:37;26.30;74.00
20973;DHT22;10645;52.370;13.314;2023-05-10T13:52:03;26.60;75.70
20973;DHT22;10645;52.370;13.314;2023-05-10T13:54:36;26.70;78.30
20973;DHT22;10645;52.370;13.314;2023-05-10T13:57:02;26.60;75.60
20973;DHT22;10645;52.370;13.314;2023-05-10T13:59:29;26.80;73.30
20973;DHT22;10645;52.370;13.314;2023-05-10T14:01:58;26.90;75.00
20973;DHT22;10645;52.370;13.314;2023-05-10T14:04:24;27.10;75.00
20973;DHT22;10645;52.370;13.314;2023-05-10T14:06:50;27.30;77.20
20973;DHT22;10645;52.370;13.314;2023-05-10T14:09:18;27.50;71.50
20973;DHT22;10645;52.370;13.314;2023-05-10T14:11:45;27.30;73.40
20973;DHT22;10645;52.370;13.314;2023-05-10T14:14:12;27.30;72.90
20973;DHT22;10645;52.370;13.314;2023-05-10T14:16:41;27.40;76.00
20973;DHT22;10645;52.370;13.314;2023-05-10T14:19:07;27.30;71.30
20973;DHT22;10645;52.370;13.314;2023-05-10T14:21:33;27.50;74.80
20973;DHT22;10645;52.370;13.314;2023-05-10T14:23:59;27.00;72.20
20973;DHT22;10645;52.370;13.314;2023-05-10T14:26:26;26.40;72.60
20973;DHT22;10645;52.370;13.314;2023-05-10T14:28:52;26.30;73.20
20973;DHT22;10645;52.370;13.314;2023-05-10T14:31:18;26.40;73.70
20973;DHT22;10645;52.370;13.314;2023-05-10T14:33:46;26.70;74.50
20973;DHT22;10645;52.370;13.314;2023-05-10T14:36:13;26.90;71.50
20973;DHT22;10645;52.370;13.314;2023-05-10T14:38:40;27.00;71.40
20973;DHT22;10645;52.370;13.314;2023-05-10T14:41:06;26.80;73.10
20973;DHT22;10645;52.370;13.314;2023-05-10T14:43:32;26.70;73.20
20973;DHT22;10645;52.370;13.314;2023-05-10T14:45:58;26.80;74.80
20973;DHT22;10645;52.370;13.314;2023-05-10T14:48:24;26.50;71.80
20973;DHT22;10645;52.370;13.314;2023-05-10T14:50:50;26.60;73.30
20973;DHT22;10645;52.370;13.314;2023-05-10T14:53:18;26.80;72.50
20973;DHT22;10645;52.370;13.314;2023-05-10T14:55:44;27.60;72.70
20973;DHT22;10645;52.370;13.314;2023-05-10T14:58:10;28.00;68.80
20973;DHT22;10645;52.370;13.314;2023-05-10T15:00:36;27.60;71.50
20973;DHT22;10645;52.370;13.314;2023-05-10T15:03:03;28.00;70.50
20973;DHT22;10645;52.370;13.314;2023-05-10T15:05:29;28.40;70.10
20973;DHT22;10645;52.370;13.314;2023-05-10T15:07:55;29.00;67.90
20973;DHT22;10645;52.370;13.314;2023-05-10T15:10:21;29.10;67.70
20973;DHT22;10645;52.370;13.314;2023-05-10T15:12:47;29.50;66.10
20973;DHT22;10645;52.370;13.314;2023-05-10T15:15:14;29.40;65.20
20973;DHT22;10645;52.370;13.314;2023-05-10T15:17:40;29.40;65.70
20973;DHT22;10645;52.370;13.314;2023-05-10T15:20:07;29.60;65.80
20973;DHT22;10645;52.370;13.314;2023-05-10T15:22:33;29.80;64.80
20973;DHT22;10645;52.370;13.314;2023-05-10T15:24:59;29.80;64.30
20973;DHT22;10645;52.370;13.314;2023-05-10T15:27:26;28.90;65.70
20973;DHT22;10645;52.370;13.314;2023-05-10T15:29:52;28.00;66.30
20973;DHT22;10645;52.370;13.314;2023-05-10T15:32:18;27.00;68.60
20973;DHT22;10645;52.370;13.314;2023-05-10T15:34:44;25.90;69.70
20973;DHT22;10645;52.370;13.314;2023-05-10T15:37:10;25.70;75.50
20973;DHT22;10645;52.370;13.314;2023-05-10T15:39:36;26.00;73.90
20973;DHT22;10645;52.370;13.314;2023-05-10T15:42:02;26.80;72.40
20973;DHT22;10645;52.370;13.314;2023-05-10T15:44:29;27.10;69.30
20973;DHT22;10645;52.370;13.314;2023-05-10T15:46:55;26.60;77.40
20973;DHT22;10645;52.370;13.314;2023-05-10T15:49:21;25.50;80.40
20973;DHT22;10645;52.370;13.314;2023-05-10T15:51:48;24.60;84.40